Thacker, West Virginia
Current Conditions -  °F | °C
As of 11:15 AM on Thursday 29 Jan 2015 (Local Time) from KPBX Reporting Station
Light Rain Light Rain  
Wind Chill: 36°   Ceiling: 3300
Heat Index: 42°   Visibility: 10mi
Dew Point: 32°   Wind: 9mph
Humidity: 69%   Direction: 190°S
Pressure: 30.01"   Gusts: NA
Location:  37.59°N, 82.13°W
Report Text: KPBX 291615Z AUTO 19008KT 10SM -RA BKN033 BKN043 OVC060 06/00 A3001 RMK AO2 T00550002
Loading
Personal Weather Stations






























Interactive Weather Map New forecast layout! Learn more

10-Day Weather Forecast

Advertisements
Track Severe Weather on mobile